createdAt,value
2019-06-08T00:02:18.439Z,11.80
2019-06-08T00:04:49.244Z,11.80
2019-06-08T00:07:20.901Z,11.90
2019-06-08T00:09:51.612Z,11.90
2019-06-08T00:12:23.254Z,11.90
2019-06-08T00:14:54.186Z,11.90
2019-06-08T00:17:37.479Z,11.80
2019-06-08T00:19:57.152Z,11.80
2019-06-08T00:22:27.826Z,11.80
2019-06-08T00:24:58.641Z,11.70
2019-06-08T00:27:29.208Z,11.70
2019-06-08T00:30:00.055Z,11.60
2019-06-08T00:32:30.789Z,11.60
2019-06-08T00:35:01.437Z,11.60
2019-06-08T00:37:32.134Z,11.60
2019-06-08T00:40:02.840Z,11.60
2019-06-08T00:42:33.507Z,11.60
2019-06-08T00:45:04.380Z,11.60
2019-06-08T00:47:47.081Z,11.60
2019-06-08T00:50:07.587Z,11.60
2019-06-08T00:52:38.264Z,11.60
2019-06-08T00:55:09.080Z,11.60
2019-06-08T00:57:39.749Z,11.70
2019-06-08T01:00:11.652Z,11.70
2019-06-08T01:02:42.519Z,11.80
2019-06-08T01:05:13.297Z,11.80
2019-06-08T01:07:44.012Z,11.90
2019-06-08T01:10:15.613Z,11.90
2019-06-08T01:12:46.317Z,11.90
2019-06-08T01:15:36.081Z,11.90
2019-06-08T01:18:06.765Z,11.90
2019-06-08T01:20:37.481Z,11.90
2019-06-08T01:23:08.147Z,11.80
2019-06-08T01:25:38.824Z,11.80
2019-06-08T01:28:09.474Z,11.80
2019-06-08T01:30:41.286Z,11.80
2019-06-08T01:33:11.983Z,11.80
2019-06-08T01:35:42.639Z,11.70
2019-06-08T01:38:13.276Z,11.80
2019-06-08T01:40:43.980Z,11.80
2019-06-08T01:43:14.682Z,11.70
2019-06-08T01:45:45.335Z,11.70
2019-06-08T01:48:20.366Z,11.70
2019-06-08T01:50:48.325Z,11.70
2019-06-08T01:53:18.995Z,11.70
2019-06-08T01:55:49.591Z,11.60
2019-06-08T01:58:20.217Z,11.60
2019-06-08T02:00:50.936Z,11.60
2019-06-08T02:03:21.641Z,11.60
2019-06-08T02:05:52.251Z,11.50
2019-06-08T02:08:24.318Z,11.50
2019-06-08T02:10:55.070Z,11.50
2019-06-08T02:13:26.802Z,11.50
2019-06-08T02:15:57.664Z,11.50
2019-06-08T02:18:39.957Z,11.50
2019-06-08T02:21:00.687Z,11.50
2019-06-08T02:23:31.371Z,11.50
2019-06-08T02:26:02.101Z,11.60
2019-06-08T02:28:33.612Z,11.60
2019-06-08T02:31:04.400Z,11.60
2019-06-08T02:33:37.174Z,11.50
2019-06-08T02:36:07.397Z,11.50
2019-06-08T02:38:39.302Z,11.40
2019-06-08T02:41:10.196Z,11.40
2019-06-08T02:43:40.898Z,11.40
2019-06-08T02:46:11.644Z,11.40
2019-06-08T02:49:02.244Z,11.40
2019-06-08T02:51:14.679Z,11.30
2019-06-08T02:53:45.924Z,11.30
2019-06-08T02:56:16.581Z,11.30
2019-06-08T02:58:50.017Z,11.30
2019-06-08T03:01:23.085Z,11.30
2019-06-08T03:03:54.872Z,11.20
2019-06-08T03:06:30.363Z,11.10
2019-06-08T03:09:04.665Z,11.10
2019-06-08T03:11:36.978Z,11.10
2019-06-08T03:14:07.932Z,11.00
2019-06-08T03:16:41.115Z,11.00
2019-06-08T03:19:21.912Z,11.00
2019-06-08T03:21:43.288Z,11.00
2019-06-08T03:24:14.017Z,11.00
2019-06-08T03:26:44.726Z,11.00
2019-06-08T03:29:15.430Z,11.10
2019-06-08T03:31:55.017Z,11.10
2019-06-08T03:34:18.355Z,11.10
2019-06-08T03:36:56.050Z,11.00
2019-06-08T03:39:21.425Z,11.00
2019-06-08T03:41:52.111Z,11.00
2019-06-08T03:44:22.789Z,11.00
2019-06-08T03:46:53.557Z,10.90
2019-06-08T03:49:40.331Z,11.00
2019-06-08T03:51:56.611Z,11.00
2019-06-08T03:54:27.291Z,10.90
2019-06-08T03:56:58.010Z,10.90
2019-06-08T03:59:28.537Z,10.80
2019-06-08T04:01:59.309Z,10.80
2019-06-08T04:04:29.991Z,10.80
2019-06-08T04:07:00.658Z,10.80
2019-06-08T04:09:31.265Z,10.70
2019-06-08T04:12:01.983Z,10.60
2019-06-08T04:14:32.645Z,10.60
2019-06-08T04:17:03.429Z,10.70
2019-06-08T04:19:34.130Z,10.70
2019-06-08T04:22:04.911Z,10.70
2019-06-08T04:24:35.594Z,10.70
2019-06-08T04:27:06.311Z,10.70
2019-06-08T04:29:37.664Z,10.80
2019-06-08T04:32:08.482Z,10.80
2019-06-08T04:34:40.880Z,10.80
2019-06-08T04:37:15.772Z,10.70
2019-06-08T04:39:44.544Z,10.70
2019-06-08T04:42:15.459Z,10.70
2019-06-08T04:44:46.906Z,10.70
2019-06-08T04:47:18.303Z,10.70
2019-06-08T04:49:49.027Z,10.60
2019-06-08T04:52:19.784Z,10.60
2019-06-08T04:54:50.483Z,10.60
2019-06-08T04:57:21.218Z,10.80
2019-06-08T04:59:51.895Z,10.80
2019-06-08T05:02:22.660Z,10.80
2019-06-08T05:04:53.373Z,10.90
2019-06-08T05:07:24.083Z,10.90
2019-06-08T05:09:54.849Z,10.90
2019-06-08T05:12:26.528Z,11.00
2019-06-08T05:14:57.292Z,11.00
2019-06-08T05:17:28.002Z,11.00
2019-06-08T05:19:58.715Z,11.00
2019-06-08T05:22:29.481Z,11.10
2019-06-08T05:25:00.259Z,11.10
2019-06-08T05:27:31.007Z,11.20
2019-06-08T05:30:08.050Z,11.30
2019-06-08T05:32:34.127Z,11.40
2019-06-08T05:35:05.333Z,11.60
2019-06-08T05:37:36.081Z,11.60
2019-06-08T05:40:07.241Z,11.70
2019-06-08T05:42:37.947Z,11.80
2019-06-08T05:45:08.960Z,11.90
2019-06-08T05:47:39.816Z,12.10
2019-06-08T05:50:10.822Z,12.20
2019-06-08T05:52:41.898Z,12.40
2019-06-08T05:55:12.778Z,12.50
2019-06-08T05:57:44.198Z,12.50
2019-06-08T06:00:15.039Z,12.60
2019-06-08T06:02:46.959Z,12.70
2019-06-08T06:05:17.921Z,12.70
2019-06-08T06:07:49.048Z,12.50
2019-06-08T06:10:19.948Z,12.30
2019-06-08T06:12:51.208Z,12.50
2019-06-08T06:15:21.967Z,12.40
2019-06-08T06:17:52.564Z,12.30
2019-06-08T06:20:23.430Z,12.20
2019-06-08T06:22:54.152Z,12.10
2019-06-08T06:25:24.940Z,12.10
2019-06-08T06:27:55.655Z,12.00
2019-06-08T06:30:26.366Z,11.90
2019-06-08T06:32:57.092Z,11.90
2019-06-08T06:35:29.214Z,11.90
2019-06-08T06:37:59.925Z,11.90
2019-06-08T06:40:30.693Z,11.90
2019-06-08T06:43:02.539Z,11.90
2019-06-08T06:45:33.238Z,11.90
2019-06-08T06:48:03.962Z,11.80
2019-06-08T06:50:34.767Z,11.80
2019-06-08T06:53:05.584Z,11.80
2019-06-08T06:55:36.330Z,11.90
2019-06-08T06:58:07.007Z,11.90
2019-06-08T07:00:37.806Z,11.90
2019-06-08T07:03:09.630Z,11.80
2019-06-08T07:05:40.345Z,11.70
2019-06-08T07:08:11.063Z,11.60
2019-06-08T07:10:41.729Z,11.70
2019-06-08T07:13:12.417Z,11.60
2019-06-08T07:15:43.131Z,11.60
2019-06-08T07:18:13.828Z,11.60
2019-06-08T07:20:46.019Z,11.60
2019-06-08T07:23:17.011Z,11.60
2019-06-08T07:25:48.407Z,11.70
2019-06-08T07:28:19.123Z,11.80
2019-06-08T07:30:50.638Z,11.80
2019-06-08T07:33:21.475Z,11.80
2019-06-08T07:35:53.203Z,11.90
2019-06-08T07:38:24.267Z,11.90
2019-06-08T07:40:58.468Z,11.80
2019-06-08T07:43:27.312Z,11.80
2019-06-08T07:45:58.462Z,11.80
2019-06-08T07:48:29.228Z,11.90
2019-06-08T07:51:00.081Z,11.90
2019-06-08T07:53:30.898Z,12.00
2019-06-08T07:56:01.592Z,12.00
2019-06-08T07:58:32.338Z,12.00
2019-06-08T08:01:07.964Z,12.00
2019-06-08T08:03:35.454Z,12.00
2019-06-08T08:06:06.178Z,11.90
2019-06-08T08:08:36.917Z,11.90
2019-06-08T08:11:07.610Z,11.90
2019-06-08T08:13:38.386Z,11.80
2019-06-08T08:16:09.072Z,11.80
2019-06-08T08:18:40.240Z,11.90
2019-06-08T08:21:21.259Z,11.90
2019-06-08T08:23:43.232Z,12.00
2019-06-08T08:26:13.928Z,12.00
2019-06-08T08:28:44.644Z,12.00
2019-06-08T08:31:15.474Z,12.00
2019-06-08T08:33:48.508Z,12.00
2019-06-08T08:36:21.038Z,12.00
2019-06-08T08:38:51.856Z,12.10
2019-06-08T08:41:22.587Z,12.10
2019-06-08T08:43:54.288Z,12.00
2019-06-08T08:46:25.160Z,12.10
2019-06-08T08:49:04.681Z,12.20
2019-06-08T08:51:28.183Z,12.30
2019-06-08T08:54:04.795Z,12.50
2019-06-08T08:56:31.902Z,12.70
2019-06-08T08:59:02.933Z,12.90
2019-06-08T09:01:33.733Z,12.90
2019-06-08T09:04:05.274Z,12.90
2019-06-08T09:06:37.953Z,12.90
2019-06-08T09:09:09.072Z,12.90
2019-06-08T09:11:41.333Z,12.90
2019-06-08T09:14:14.011Z,12.90
2019-06-08T09:16:44.580Z,12.80
2019-06-08T09:19:18.363Z,12.60
2019-06-08T09:21:48.165Z,12.60
2019-06-08T09:24:19.099Z,12.60
2019-06-08T09:26:49.775Z,12.60
2019-06-08T09:29:20.535Z,12.60
2019-06-08T09:31:51.900Z,12.70
2019-06-08T09:34:22.644Z,12.80
2019-06-08T09:36:54.179Z,12.90
2019-06-08T09:39:28.511Z,13.00
2019-06-08T09:42:01.295Z,13.10
2019-06-08T09:44:30.601Z,13.30
2019-06-08T09:47:07.384Z,13.40
2019-06-08T09:49:33.676Z,13.60
2019-06-08T09:52:05.350Z,13.70
2019-06-08T09:54:38.506Z,13.80
2019-06-08T09:57:09.660Z,13.90
2019-06-08T09:59:40.541Z,13.90
2019-06-08T10:02:12.924Z,13.80
2019-06-08T10:04:43.668Z,13.70
2019-06-08T10:07:14.365Z,13.60
2019-06-08T10:09:47.430Z,13.60
2019-06-08T10:12:18.192Z,13.50
2019-06-08T10:14:49.233Z,13.60
2019-06-08T10:17:21.010Z,13.60
2019-06-08T10:19:52.022Z,13.60
2019-06-08T10:22:22.760Z,13.60
2019-06-08T10:24:55.314Z,13.60
2019-06-08T10:27:28.206Z,13.80
2019-06-08T10:30:01.104Z,14.00
2019-06-08T10:32:30.518Z,14.10
2019-06-08T10:35:03.571Z,14.20
2019-06-08T10:37:33.589Z,14.10
2019-06-08T10:40:06.445Z,14.10
2019-06-08T10:42:39.817Z,14.10
2019-06-08T10:45:14.343Z,14.30
2019-06-08T10:47:43.400Z,14.50
2019-06-08T10:50:15.712Z,14.60
2019-06-08T10:52:46.798Z,14.70
2019-06-08T10:55:18.495Z,14.50
2019-06-08T10:57:49.591Z,14.40
2019-06-08T11:00:23.989Z,14.40
2019-06-08T11:02:55.221Z,14.30
2019-06-08T11:05:27.946Z,14.30
2019-06-08T11:07:59.285Z,14.50
2019-06-08T11:10:30.815Z,14.50
2019-06-08T11:13:05.241Z,14.30
2019-06-08T11:15:33.930Z,14.10
2019-06-08T11:18:07.083Z,14.30
2019-06-08T11:20:38.201Z,14.70
2019-06-08T11:23:12.289Z,15.00
2019-06-08T11:25:41.494Z,15.00
2019-06-08T11:28:14.944Z,15.20
2019-06-08T11:30:47.959Z,15.20
2019-06-08T11:33:18.154Z,15.00
2019-06-08T11:35:48.861Z,15.20
2019-06-08T11:38:20.268Z,15.40
2019-06-08T11:40:51.034Z,15.50
2019-06-08T11:43:21.781Z,15.30
2019-06-08T11:45:52.565Z,15.20
2019-06-08T11:48:24.483Z,15.00
2019-06-08T11:50:55.220Z,14.90
2019-06-08T11:53:28.659Z,15.00
2019-06-08T11:56:01.203Z,15.40
2019-06-08T11:58:33.148Z,15.70
2019-06-08T12:01:11.258Z,15.80
2019-06-08T12:03:38.875Z,15.70
2019-06-08T12:06:12.973Z,15.60
2019-06-08T12:08:42.126Z,15.50
2019-06-08T12:11:18.800Z,15.60
2019-06-08T12:13:46.919Z,15.60
2019-06-08T12:16:21.922Z,15.40
2019-06-08T12:18:50.001Z,15.20
2019-06-08T12:21:20.687Z,15.30
2019-06-08T12:23:51.464Z,15.40
2019-06-08T12:26:22.171Z,15.50
2019-06-08T12:28:52.969Z,15.70
2019-06-08T12:31:23.682Z,15.90
2019-06-08T12:33:54.420Z,16.10
2019-06-08T12:36:25.155Z,16.30
2019-06-08T12:38:58.503Z,16.20
2019-06-08T12:41:31.292Z,16.20
2019-06-08T12:44:00.826Z,16.20
2019-06-08T12:46:31.584Z,16.20
2019-06-08T12:49:02.337Z,16.40
2019-06-08T12:51:33.056Z,16.70
2019-06-08T12:54:03.772Z,16.90
2019-06-08T12:56:34.506Z,16.70
2019-06-08T12:59:08.026Z,16.70
2019-06-08T13:01:38.139Z,16.70
2019-06-08T13:04:09.519Z,16.70
2019-06-08T13:06:40.779Z,16.50
2019-06-08T13:09:13.488Z,16.20
2019-06-08T13:11:44.755Z,16.00
2019-06-08T13:14:17.107Z,15.70
2019-06-08T13:16:48.650Z,15.60
2019-06-08T13:19:20.245Z,15.70
2019-06-08T13:21:51.031Z,16.20
2019-06-08T13:24:21.720Z,16.80
2019-06-08T13:26:52.444Z,17.00
2019-06-08T13:29:23.160Z,16.90
2019-06-08T13:31:53.889Z,16.50
2019-06-08T13:34:24.793Z,16.50
2019-06-08T13:36:55.531Z,16.50
2019-06-08T13:39:28.016Z,16.40
2019-06-08T13:41:58.792Z,16.30
2019-06-08T13:44:29.509Z,16.10
2019-06-08T13:47:00.246Z,16.20
2019-06-08T13:49:31.049Z,16.60
2019-06-08T13:52:01.838Z,16.80
2019-06-08T13:54:32.555Z,16.60
2019-06-08T13:57:03.332Z,16.70
2019-06-08T13:59:34.008Z,17.10
2019-06-08T14:02:05.704Z,17.30
2019-06-08T14:04:39.401Z,17.30
2019-06-08T14:07:08.816Z,17.60
2019-06-08T14:09:39.523Z,17.80
2019-06-08T14:12:10.258Z,17.70
2019-06-08T14:14:40.966Z,18.20
2019-06-08T14:17:11.723Z,18.70
2019-06-08T14:19:42.458Z,18.70
2019-06-08T14:22:13.215Z,18.80
2019-06-08T14:24:43.920Z,18.50
2019-06-08T14:27:14.667Z,17.90
2019-06-08T14:29:45.404Z,17.80
2019-06-08T14:32:18.813Z,18.00
2019-06-08T14:34:50.160Z,17.90
2019-06-08T14:37:20.934Z,17.40
2019-06-08T14:39:51.585Z,17.10
2019-06-08T14:42:27.716Z,16.90
2019-06-08T14:44:54.647Z,16.70
2019-06-08T14:47:27.388Z,17.00
2019-06-08T14:49:58.482Z,17.60
2019-06-08T14:52:30.869Z,18.10
2019-06-08T14:55:01.762Z,18.40
2019-06-08T14:57:32.525Z,18.40
2019-06-08T15:00:08.812Z,18.80
2019-06-08T15:02:37.754Z,19.70
2019-06-08T15:05:08.013Z,20.00
2019-06-08T15:07:38.981Z,19.60
2019-06-08T15:10:10.170Z,19.20
2019-06-08T15:12:40.844Z,18.40
2019-06-08T15:15:11.586Z,18.20
2019-06-08T15:17:42.347Z,18.00
2019-06-08T15:20:13.354Z,17.70
2019-06-08T15:22:44.090Z,17.50
2019-06-08T15:25:15.115Z,17.40
2019-06-08T15:27:47.792Z,17.50
2019-06-08T15:30:18.949Z,17.80
2019-06-08T15:32:49.698Z,17.70
2019-06-08T15:35:21.051Z,17.50
2019-06-08T15:37:51.838Z,17.20
2019-06-08T15:40:23.506Z,17.00
2019-06-08T15:42:54.265Z,17.10
2019-06-08T15:45:26.255Z,17.40
2019-06-08T15:47:58.689Z,17.50
2019-06-08T15:50:29.572Z,17.30
2019-06-08T15:53:00.316Z,17.10
2019-06-08T15:55:33.011Z,17.00
2019-06-08T15:58:03.429Z,16.90
2019-06-08T16:00:34.507Z,17.00
2019-06-08T16:03:05.755Z,17.00
2019-06-08T16:05:36.539Z,16.90
2019-06-08T16:08:07.296Z,16.90
2019-06-08T16:10:37.991Z,17.10
2019-06-08T16:13:08.719Z,17.30
2019-06-08T16:15:39.475Z,17.40
2019-06-08T16:18:10.119Z,17.50
2019-06-08T16:20:40.877Z,17.40
2019-06-08T16:23:11.604Z,17.30
2019-06-08T16:25:42.333Z,17.50
2019-06-08T16:28:13.050Z,17.50
2019-06-08T16:30:44.102Z,17.40
2019-06-08T16:33:14.832Z,17.30
2019-06-08T16:35:45.606Z,17.40
2019-06-08T16:38:16.291Z,17.40
2019-06-08T16:40:47.039Z,17.40
2019-06-08T16:43:17.735Z,17.20
2019-06-08T16:45:48.490Z,17.10
2019-06-08T16:48:19.187Z,17.10
2019-06-08T16:50:49.923Z,16.90
2019-06-08T16:53:20.649Z,16.80
2019-06-08T16:55:51.406Z,16.70
2019-06-08T16:58:22.132Z,16.70
2019-06-08T17:00:52.882Z,16.70
2019-06-08T17:03:23.667Z,16.70
2019-06-08T17:05:54.621Z,16.60
2019-06-08T17:08:25.367Z,16.50
2019-06-08T17:10:56.124Z,16.40
2019-06-08T17:13:26.851Z,16.30
2019-06-08T17:15:57.589Z,16.30
2019-06-08T17:18:28.344Z,16.20
2019-06-08T17:20:59.089Z,16.10
2019-06-08T17:23:30.641Z,16.10
2019-06-08T17:26:03.801Z,16.00
2019-06-08T17:28:35.377Z,16.10
2019-06-08T17:31:06.046Z,16.20
2019-06-08T17:33:37.259Z,16.30
2019-06-08T17:36:07.992Z,16.40
2019-06-08T17:38:39.467Z,16.60
2019-06-08T17:41:10.254Z,16.70
2019-06-08T17:43:41.425Z,17.00
2019-06-08T17:46:13.137Z,17.10
2019-06-08T17:48:43.882Z,17.10
2019-06-08T17:51:15.737Z,17.10
2019-06-08T17:53:46.484Z,17.00
2019-06-08T17:56:17.200Z,16.90
2019-06-08T17:58:47.964Z,16.80
2019-06-08T18:01:18.686Z,16.70
2019-06-08T18:03:49.461Z,16.60
2019-06-08T18:06:20.206Z,16.50
2019-06-08T18:08:50.972Z,16.50
2019-06-08T18:11:21.718Z,16.50
2019-06-08T18:13:52.464Z,16.50
2019-06-08T18:16:23.395Z,16.50
2019-06-08T18:18:54.188Z,16.50
2019-06-08T18:21:24.864Z,16.40
2019-06-08T18:23:57.216Z,16.30
2019-06-08T18:26:28.036Z,16.30
2019-06-08T18:28:58.785Z,16.20
2019-06-08T18:31:29.489Z,16.20
2019-06-08T18:34:02.074Z,16.20
2019-06-08T18:36:32.626Z,16.20
2019-06-08T18:39:03.318Z,16.10
2019-06-08T18:41:35.017Z,16.00
2019-06-08T18:44:08.417Z,15.90
2019-06-08T18:46:40.360Z,15.80
2019-06-08T18:49:10.535Z,15.70
2019-06-08T18:51:42.546Z,15.60
2019-06-08T18:54:14.823Z,15.50
2019-06-08T18:56:48.702Z,15.40
2019-06-08T18:59:18.733Z,15.30
2019-06-08T19:01:49.874Z,15.20
2019-06-08T19:04:20.657Z,15.10
2019-06-08T19:06:51.503Z,15.10
2019-06-08T19:09:22.748Z,15.10
2019-06-08T19:11:53.514Z,15.00
2019-06-08T19:14:24.231Z,14.90
2019-06-08T19:16:55.028Z,14.90
2019-06-08T19:19:28.555Z,14.90
2019-06-08T19:21:58.760Z,14.80
2019-06-08T19:24:29.503Z,14.80
2019-06-08T19:27:00.288Z,14.80
2019-06-08T19:29:30.980Z,14.80
2019-06-08T19:32:01.716Z,14.70
2019-06-08T19:34:33.467Z,14.70
2019-06-08T19:37:04.566Z,14.60
2019-06-08T19:39:35.294Z,14.50
2019-06-08T19:42:08.013Z,14.50
2019-06-08T19:44:41.496Z,14.40
2019-06-08T19:47:10.855Z,14.40
2019-06-08T19:49:42.797Z,14.20
2019-06-08T19:52:13.658Z,14.10
2019-06-08T19:54:47.155Z,14.00
2019-06-08T19:57:17.454Z,14.00
2019-06-08T19:59:49.567Z,14.00
2019-06-08T20:02:20.476Z,14.00
2019-06-08T20:04:51.250Z,13.90
2019-06-08T20:07:21.987Z,13.80
2019-06-08T20:09:53.693Z,13.70
2019-06-08T20:12:24.760Z,13.60
2019-06-08T20:14:57.591Z,13.60
2019-06-08T20:17:28.332Z,13.50
2019-06-08T20:19:59.368Z,13.40
2019-06-08T20:22:30.176Z,13.40
2019-06-08T20:25:00.891Z,13.30
2019-06-08T20:27:31.691Z,13.20
2019-06-08T20:30:08.798Z,13.20
2019-06-08T20:32:35.630Z,13.10
2019-06-08T20:35:07.960Z,13.10
2019-06-08T20:37:38.957Z,13.00
2019-06-08T20:40:13.879Z,13.00
2019-06-08T20:42:42.339Z,13.00
2019-06-08T20:45:13.103Z,12.90
2019-06-08T20:47:44.373Z,13.00
2019-06-08T20:50:17.471Z,12.90
2019-06-08T20:52:49.717Z,12.90
2019-06-08T20:55:19.830Z,12.80
2019-06-08T20:57:51.249Z,12.80
2019-06-08T21:00:23.283Z,12.70
2019-06-08T21:02:55.238Z,12.70
2019-06-08T21:05:27.834Z,12.70
2019-06-08T21:07:59.089Z,12.70
2019-06-08T21:10:32.078Z,12.60
2019-06-08T21:13:02.827Z,12.60
2019-06-08T21:15:33.615Z,12.50
2019-06-08T21:18:04.470Z,12.50
2019-06-08T21:20:37.601Z,12.40
2019-06-08T21:23:08.193Z,12.40
2019-06-08T21:25:39.035Z,12.40
2019-06-08T21:28:09.796Z,12.30
2019-06-08T21:30:40.476Z,12.20
2019-06-08T21:33:11.238Z,12.10
2019-06-08T21:35:42.017Z,11.90
2019-06-08T21:38:23.425Z,11.90
2019-06-08T21:40:45.147Z,11.80
2019-06-08T21:43:18.340Z,11.80
2019-06-08T21:45:51.041Z,11.70
2019-06-08T21:48:20.648Z,11.70
2019-06-08T21:50:53.365Z,11.60
2019-06-08T21:53:23.791Z,11.60
2019-06-08T21:55:54.476Z,11.60
2019-06-08T21:58:25.223Z,11.50
2019-06-08T22:00:59.414Z,11.50
2019-06-08T22:03:28.683Z,11.40
2019-06-08T22:06:00.207Z,11.40
2019-06-08T22:08:31.093Z,11.40
2019-06-08T22:11:02.658Z,11.40
2019-06-08T22:13:33.623Z,11.40
2019-06-08T22:16:04.491Z,11.30
2019-06-08T22:18:35.274Z,11.30
2019-06-08T22:21:08.203Z,11.30
2019-06-08T22:23:38.333Z,11.30
2019-06-08T22:26:09.064Z,11.30
2019-06-08T22:28:39.760Z,11.20
2019-06-08T22:31:10.517Z,11.20
2019-06-08T22:33:41.316Z,11.10
2019-06-08T22:36:12.708Z,11.10
2019-06-08T22:38:43.555Z,11.10
2019-06-08T22:41:14.362Z,11.10
2019-06-08T22:43:45.038Z,11.00
2019-06-08T22:46:17.812Z,11.00
2019-06-08T22:48:48.169Z,11.00
2019-06-08T22:51:18.949Z,11.00
2019-06-08T22:53:49.655Z,11.00
2019-06-08T22:56:20.390Z,10.90
2019-06-08T22:58:51.097Z,10.90
2019-06-08T23:01:21.843Z,10.80
2019-06-08T23:03:53.630Z,10.80
2019-06-08T23:06:24.987Z,10.80
2019-06-08T23:08:59.785Z,10.80
2019-06-08T23:11:28.589Z,10.70
2019-06-08T23:14:01.395Z,10.70
2019-06-08T23:16:31.718Z,10.70
2019-06-08T23:19:03.243Z,10.70
2019-06-08T23:21:33.996Z,10.70
2019-06-08T23:24:06.313Z,10.70
2019-06-08T23:26:37.315Z,10.70
2019-06-08T23:29:09.692Z,10.60
2019-06-08T23:31:40.584Z,10.70
2019-06-08T23:34:11.684Z,10.70
2019-06-08T23:36:55.368Z,10.70
2019-06-08T23:39:18.157Z,10.70
2019-06-08T23:41:48.938Z,10.60
2019-06-08T23:44:19.604Z,10.60
2019-06-08T23:46:50.274Z,10.60
2019-06-08T23:49:20.939Z,10.70
2019-06-08T23:51:51.644Z,10.70
2019-06-08T23:54:22.261Z,10.60
2019-06-08T23:56:52.970Z,10.60
2019-06-08T23:59:23.715Z,10.60
